sensor_id;sensor_type;location;lat;lon;timestamp;temperature;humidity
77582;DHT22;66726;52.388;9.986;2023-08-08T00:01:35;13.30;99.90
77582;DHT22;66726;52.388;9.986;2023-08-08T00:04:12;13.30;99.90
77582;DHT22;66726;52.388;9.986;2023-08-08T00:06:44;13.30;99.90
77582;DHT22;66726;52.388;9.986;2023-08-08T00:09:16;13.20;99.90
77582;DHT22;66726;52.388;9.986;2023-08-08T00:11:48;13.20;99.90
77582;DHT22;66726;52.388;9.986;2023-08-08T00:14:20;13.20;99.90
77582;DHT22;66726;52.388;9.986;2023-08-08T00:16:52;13.20;99.90
77582;DHT22;66726;52.388;9.986;2023-08-08T00:19:25;13.10;99.90
77582;DHT22;66726;52.388;9.986;2023-08-08T00:21:57;13.10;99.90
77582;DHT22;66726;52.388;9.986;2023-08-08T00:24:29;13.10;99.90
77582;DHT22;66726;52.388;9.986;2023-08-08T00:27:01;13.10;99.90
77582;DHT22;66726;52.388;9.986;2023-08-08T00:29:33;13.10;99.90
77582;DHT22;66726;52.388;9.986;2023-08-08T00:32:05;13.10;99.90
77582;DHT22;66726;52.388;9.986;2023-08-08T00:34:38;13.20;99.90
77582;DHT22;66726;52.388;9.986;2023-08-08T00:37:10;13.10;99.90
77582;DHT22;66726;52.388;9.986;2023-08-08T00:39:42;13.20;99.90
77582;DHT22;66726;52.388;9.986;2023-08-08T00:42:14;13.10;99.90
77582;DHT22;66726;52.388;9.986;2023-08-08T00:44:46;13.20;99.90
77582;DHT22;66726;52.388;9.986;2023-08-08T00:47:18;13.10;99.90
77582;DHT22;66726;52.388;9.986;2023-08-08T00:49:52;13.10;99.90
77582;DHT22;66726;52.388;9.986;2023-08-08T00:52:24;13.10;99.90
77582;DHT22;66726;52.388;9.986;2023-08-08T00:54:56;13.10;99.90
77582;DHT22;66726;52.388;9.986;2023-08-08T00:57:30;13.10;99.90
77582;DHT22;66726;52.388;9.986;2023-08-08T01:00:03;13.20;99.90
77582;DHT22;66726;52.388;9.986;2023-08-08T01:02:35;13.10;99.90
77582;DHT22;66726;52.388;9.986;2023-08-08T01:05:09;13.10;99.90
77582;DHT22;66726;52.388;9.986;2023-08-08T01:07:47;13.20;99.90
77582;DHT22;66726;52.388;9.986;2023-08-08T01:10:25;13.10;99.90
77582;DHT22;66726;52.388;9.986;2023-08-08T01:13:02;13.10;99.90
77582;DHT22;66726;52.388;9.986;2023-08-08T01:15:39;13.10;99.90
77582;DHT22;66726;52.388;9.986;2023-08-08T01:18:12;13.10;99.90
77582;DHT22;66726;52.388;9.986;2023-08-08T01:20:48;13.10;99.90
77582;DHT22;66726;52.388;9.986;2023-08-08T01:23:26;13.10;99.90
77582;DHT22;66726;52.388;9.986;2023-08-08T01:26:14;13.00;99.90
77582;DHT22;66726;52.388;9.986;2023-08-08T01:28:46;13.00;99.90
77582;DHT22;66726;52.388;9.986;2023-08-08T01:31:21;13.00;99.90
77582;DHT22;66726;52.388;9.986;2023-08-08T01:33:53;13.00;99.90
77582;DHT22;66726;52.388;9.986;2023-08-08T01:36:30;13.00;99.90
77582;DHT22;66726;52.388;9.986;2023-08-08T01:39:10;13.00;99.90
77582;DHT22;66726;52.388;9.986;2023-08-08T01:41:45;13.10;99.90
77582;DHT22;66726;52.388;9.986;2023-08-08T01:44:20;13.10;99.90
77582;DHT22;66726;52.388;9.986;2023-08-08T01:46:53;13.10;99.90
77582;DHT22;66726;52.388;9.986;2023-08-08T01:49:25;13.00;99.90
77582;DHT22;66726;52.388;9.986;2023-08-08T01:51:59;13.00;99.90
77582;DHT22;66726;52.388;9.986;2023-08-08T01:54:31;13.00;99.90
77582;DHT22;66726;52.388;9.986;2023-08-08T01:57:05;13.00;99.90
77582;DHT22;66726;52.388;9.986;2023-08-08T01:59:37;13.00;99.90
77582;DHT22;66726;52.388;9.986;2023-08-08T02:02:09;13.00;99.90
77582;DHT22;66726;52.388;9.986;2023-08-08T02:04:41;13.00;99.90
77582;DHT22;66726;52.388;9.986;2023-08-08T02:07:13;13.00;99.90
77582;DHT22;66726;52.388;9.986;2023-08-08T02:09:45;12.90;99.90
77582;DHT22;66726;52.388;9.986;2023-08-08T02:12:20;12.90;99.90
77582;DHT22;66726;52.388;9.986;2023-08-08T02:14:52;12.90;99.90
77582;DHT22;66726;52.388;9.986;2023-08-08T02:17:24;12.90;99.90
77582;DHT22;66726;52.388;9.986;2023-08-08T02:19:58;12.90;99.90
77582;DHT22;66726;52.388;9.986;2023-08-08T02:22:32;12.90;99.90
77582;DHT22;66726;52.388;9.986;2023-08-08T02:25:04;12.90;99.90
77582;DHT22;66726;52.388;9.986;2023-08-08T02:27:37;12.90;99.90
77582;DHT22;66726;52.388;9.986;2023-08-08T02:30:10;12.90;99.90
77582;DHT22;66726;52.388;9.986;2023-08-08T02:32:43;12.90;99.90
77582;DHT22;66726;52.388;9.986;2023-08-08T02:35:15;13.00;99.90
77582;DHT22;66726;52.388;9.986;2023-08-08T02:37:46;13.00;99.90
77582;DHT22;66726;52.388;9.986;2023-08-08T02:40:19;13.00;99.90
77582;DHT22;66726;52.388;9.986;2023-08-08T02:42:53;13.00;99.90
77582;DHT22;66726;52.388;9.986;2023-08-08T02:45:25;13.00;99.90
77582;DHT22;66726;52.388;9.986;2023-08-08T02:47:57;13.10;99.90
77582;DHT22;66726;52.388;9.986;2023-08-08T02:50:29;13.00;99.90
77582;DHT22;66726;52.388;9.986;2023-08-08T02:53:01;13.00;99.90
77582;DHT22;66726;52.388;9.986;2023-08-08T02:55:33;13.10;99.90
77582;DHT22;66726;52.388;9.986;2023-08-08T02:58:06;13.10;99.90
77582;DHT22;66726;52.388;9.986;2023-08-08T03:00:38;13.10;99.90
77582;DHT22;66726;52.388;9.986;2023-08-08T03:03:10;13.10;99.90
77582;DHT22;66726;52.388;9.986;2023-08-08T03:05:43;13.10;99.90
77582;DHT22;66726;52.388;9.986;2023-08-08T03:08:15;13.10;99.90
77582;DHT22;66726;52.388;9.986;2023-08-08T03:10:47;13.00;99.90
77582;DHT22;66726;52.388;9.986;2023-08-08T03:13:20;13.00;99.90
77582;DHT22;66726;52.388;9.986;2023-08-08T03:15:52;13.10;99.90
77582;DHT22;66726;52.388;9.986;2023-08-08T03:18:25;13.10;99.90
77582;DHT22;66726;52.388;9.986;2023-08-08T03:20:57;13.00;99.90
77582;DHT22;66726;52.388;9.986;2023-08-08T03:23:29;13.10;99.90
77582;DHT22;66726;52.388;9.986;2023-08-08T03:26:02;13.10;99.90
77582;DHT22;66726;52.388;9.986;2023-08-08T03:28:35;13.10;99.90
77582;DHT22;66726;52.388;9.986;2023-08-08T03:31:07;13.10;99.90
77582;DHT22;66726;52.388;9.986;2023-08-08T03:33:39;13.10;99.90
77582;DHT22;66726;52.388;9.986;2023-08-08T03:36:11;13.10;99.90
77582;DHT22;66726;52.388;9.986;2023-08-08T03:38:44;13.10;99.90
77582;DHT22;66726;52.388;9.986;2023-08-08T03:41:16;13.10;99.90
77582;DHT22;66726;52.388;9.986;2023-08-08T03:43:49;13.10;99.90
77582;DHT22;66726;52.388;9.986;2023-08-08T03:46:21;13.10;99.90
77582;DHT22;66726;52.388;9.986;2023-08-08T03:48:53;13.10;99.90
77582;DHT22;66726;52.388;9.986;2023-08-08T03:51:25;13.20;99.90
77582;DHT22;66726;52.388;9.986;2023-08-08T03:53:57;13.30;99.90
77582;DHT22;66726;52.388;9.986;2023-08-08T03:56:29;13.20;99.90
77582;DHT22;66726;52.388;9.986;2023-08-08T03:59:02;13.20;99.90
77582;DHT22;66726;52.388;9.986;2023-08-08T04:01:34;13.30;99.90
77582;DHT22;66726;52.388;9.986;2023-08-08T04:04:07;13.30;99.90
77582;DHT22;66726;52.388;9.986;2023-08-08T04:06:38;13.30;99.90
77582;DHT22;66726;52.388;9.986;2023-08-08T04:09:10;13.30;99.90
77582;DHT22;66726;52.388;9.986;2023-08-08T04:11:42;13.30;99.90
77582;DHT22;66726;52.388;9.986;2023-08-08T04:14:15;13.30;99.90
77582;DHT22;66726;52.388;9.986;2023-08-08T04:16:47;13.20;99.90
77582;DHT22;66726;52.388;9.986;2023-08-08T04:19:19;13.20;99.90
77582;DHT22;66726;52.388;9.986;2023-08-08T04:21:52;13.30;99.90
77582;DHT22;66726;52.388;9.986;2023-08-08T04:24:24;13.30;99.90
77582;DHT22;66726;52.388;9.986;2023-08-08T04:26:56;13.30;99.90
77582;DHT22;66726;52.388;9.986;2023-08-08T04:29:29;13.30;99.90
77582;DHT22;66726;52.388;9.986;2023-08-08T04:32:01;13.30;99.90
77582;DHT22;66726;52.388;9.986;2023-08-08T04:34:33;13.30;99.90
77582;DHT22;66726;52.388;9.986;2023-08-08T04:37:05;13.30;99.90
77582;DHT22;66726;52.388;9.986;2023-08-08T04:39:37;13.30;99.90
77582;DHT22;66726;52.388;9.986;2023-08-08T04:42:09;13.30;99.90
77582;DHT22;66726;52.388;9.986;2023-08-08T04:44:42;13.30;99.90
77582;DHT22;66726;52.388;9.986;2023-08-08T04:47:14;13.40;99.90
77582;DHT22;66726;52.388;9.986;2023-08-08T04:49:46;13.40;99.90
77582;DHT22;66726;52.388;9.986;2023-08-08T04:52:18;13.30;99.90
77582;DHT22;66726;52.388;9.986;2023-08-08T04:54:50;13.40;99.90
77582;DHT22;66726;52.388;9.986;2023-08-08T04:57:22;13.40;99.90
77582;DHT22;66726;52.388;9.986;2023-08-08T04:59:56;13.40;99.90
77582;DHT22;66726;52.388;9.986;2023-08-08T05:02:29;13.40;99.90
77582;DHT22;66726;52.388;9.986;2023-08-08T05:05:01;13.40;99.90
77582;DHT22;66726;52.388;9.986;2023-08-08T05:07:33;13.50;99.90
77582;DHT22;66726;52.388;9.986;2023-08-08T05:10:08;13.40;99.90
77582;DHT22;66726;52.388;9.986;2023-08-08T05:12:40;13.40;99.90
77582;DHT22;66726;52.388;9.986;2023-08-08T05:15:13;13.40;99.90
77582;DHT22;66726;52.388;9.986;2023-08-08T05:17:45;13.50;99.90
77582;DHT22;66726;52.388;9.986;2023-08-08T05:20:17;13.50;99.90
77582;DHT22;66726;52.388;9.986;2023-08-08T05:22:49;13.50;99.90
77582;DHT22;66726;52.388;9.986;2023-08-08T05:25:21;13.50;99.90
77582;DHT22;66726;52.388;9.986;2023-08-08T05:27:53;13.50;99.90
77582;DHT22;66726;52.388;9.986;2023-08-08T05:30:26;13.50;99.90
77582;DHT22;66726;52.388;9.986;2023-08-08T05:32:58;13.50;99.90
77582;DHT22;66726;52.388;9.986;2023-08-08T05:35:30;13.50;99.90
77582;DHT22;66726;52.388;9.986;2023-08-08T05:38:02;13.60;99.90
77582;DHT22;66726;52.388;9.986;2023-08-08T05:40:36;13.60;99.90
77582;DHT22;66726;52.388;9.986;2023-08-08T05:43:08;13.60;99.90
77582;DHT22;66726;52.388;9.986;2023-08-08T05:45:47;13.60;99.90
77582;DHT22;66726;52.388;9.986;2023-08-08T05:48:19;13.60;99.90
77582;DHT22;66726;52.388;9.986;2023-08-08T05:50:51;13.70;99.90
77582;DHT22;66726;52.388;9.986;2023-08-08T05:53:23;13.70;99.90
77582;DHT22;66726;52.388;9.986;2023-08-08T05:55:55;13.70;99.90
77582;DHT22;66726;52.388;9.986;2023-08-08T05:58:27;13.80;99.90
77582;DHT22;66726;52.388;9.986;2023-08-08T06:01:00;13.80;99.90
77582;DHT22;66726;52.388;9.986;2023-08-08T06:03:34;13.80;99.90
77582;DHT22;66726;52.388;9.986;2023-08-08T06:06:07;13.80;99.90
77582;DHT22;66726;52.388;9.986;2023-08-08T06:08:39;13.90;99.90
77582;DHT22;66726;52.388;9.986;2023-08-08T06:11:11;13.90;99.90
77582;DHT22;66726;52.388;9.986;2023-08-08T06:13:43;13.90;99.90
77582;DHT22;66726;52.388;9.986;2023-08-08T06:16:16;13.90;99.90
77582;DHT22;66726;52.388;9.986;2023-08-08T06:18:48;14.00;99.90
77582;DHT22;66726;52.388;9.986;2023-08-08T06:21:21;14.00;99.90
77582;DHT22;66726;52.388;9.986;2023-08-08T06:23:53;14.00;99.90
77582;DHT22;66726;52.388;9.986;2023-08-08T06:26:25;14.10;99.90
77582;DHT22;66726;52.388;9.986;2023-08-08T06:28:56;14.10;99.90
77582;DHT22;66726;52.388;9.986;2023-08-08T06:31:30;14.20;99.90
77582;DHT22;66726;52.388;9.986;2023-08-08T06:34:02;14.20;99.90
77582;DHT22;66726;52.388;9.986;2023-08-08T06:36:34;14.20;99.90
77582;DHT22;66726;52.388;9.986;2023-08-08T06:39:06;14.40;99.90
77582;DHT22;66726;52.388;9.986;2023-08-08T06:41:40;14.30;99.90
77582;DHT22;66726;52.388;9.986;2023-08-08T06:44:12;14.40;99.90
77582;DHT22;66726;52.388;9.986;2023-08-08T06:46:44;14.40;99.90
77582;DHT22;66726;52.388;9.986;2023-08-08T06:49:16;14.50;99.90
77582;DHT22;66726;52.388;9.986;2023-08-08T06:51:48;14.50;99.90
77582;DHT22;66726;52.388;9.986;2023-08-08T06:54:20;14.60;99.90
77582;DHT22;66726;52.388;9.986;2023-08-08T06:56:52;14.60;99.90
77582;DHT22;66726;52.388;9.986;2023-08-08T06:59:28;14.70;99.90
77582;DHT22;66726;52.388;9.986;2023-08-08T07:02:01;14.80;99.90
77582;DHT22;66726;52.388;9.986;2023-08-08T07:04:34;14.80;99.90
77582;DHT22;66726;52.388;9.986;2023-08-08T07:07:07;14.90;99.90
77582;DHT22;66726;52.388;9.986;2023-08-08T07:09:39;14.90;99.90
77582;DHT22;66726;52.388;9.986;2023-08-08T07:12:12;15.00;99.90
77582;DHT22;66726;52.388;9.986;2023-08-08T07:14:44;15.10;99.90
77582;DHT22;66726;52.388;9.986;2023-08-08T07:17:17;15.20;99.90
77582;DHT22;66726;52.388;9.986;2023-08-08T07:19:48;15.20;99.90
77582;DHT22;66726;52.388;9.986;2023-08-08T07:22:20;15.30;99.90
77582;DHT22;66726;52.388;9.986;2023-08-08T07:24:52;15.30;99.90
77582;DHT22;66726;52.388;9.986;2023-08-08T07:27:25;15.30;99.90
77582;DHT22;66726;52.388;9.986;2023-08-08T07:29:57;15.30;99.90
77582;DHT22;66726;52.388;9.986;2023-08-08T07:32:31;15.30;99.90
77582;DHT22;66726;52.388;9.986;2023-08-08T07:35:03;15.30;99.90
77582;DHT22;66726;52.388;9.986;2023-08-08T07:37:37;15.30;99.90
77582;DHT22;66726;52.388;9.986;2023-08-08T07:40:16;15.40;99.90
77582;DHT22;66726;52.388;9.986;2023-08-08T07:42:50;15.40;99.90
77582;DHT22;66726;52.388;9.986;2023-08-08T07:45:22;15.40;99.90
77582;DHT22;66726;52.388;9.986;2023-08-08T07:48:02;15.50;99.90
77582;DHT22;66726;52.388;9.986;2023-08-08T07:50:34;15.60;99.90
77582;DHT22;66726;52.388;9.986;2023-08-08T07:53:06;15.80;99.90
77582;DHT22;66726;52.388;9.986;2023-08-08T07:55:38;15.80;99.90
77582;DHT22;66726;52.388;9.986;2023-08-08T07:58:10;15.90;99.90
77582;DHT22;66726;52.388;9.986;2023-08-08T08:00:42;16.00;99.90
77582;DHT22;66726;52.388;9.986;2023-08-08T08:03:16;16.00;99.90
77582;DHT22;66726;52.388;9.986;2023-08-08T08:05:48;16.10;99.90
77582;DHT22;66726;52.388;9.986;2023-08-08T08:08:20;16.30;99.90
77582;DHT22;66726;52.388;9.986;2023-08-08T08:10:53;16.40;99.90
77582;DHT22;66726;52.388;9.986;2023-08-08T08:13:25;16.40;99.90
77582;DHT22;66726;52.388;9.986;2023-08-08T08:15:57;16.40;99.90
77582;DHT22;66726;52.388;9.986;2023-08-08T08:18:30;16.30;99.90
77582;DHT22;66726;52.388;9.986;2023-08-08T08:21:02;16.40;99.90
77582;DHT22;66726;52.388;9.986;2023-08-08T08:23:34;16.40;99.90
77582;DHT22;66726;52.388;9.986;2023-08-08T08:26:06;16.50;99.90
77582;DHT22;66726;52.388;9.986;2023-08-08T08:28:38;16.40;99.90
77582;DHT22;66726;52.388;9.986;2023-08-08T08:31:09;16.40;99.90
77582;DHT22;66726;52.388;9.986;2023-08-08T08:33:43;16.60;99.90
77582;DHT22;66726;52.388;9.986;2023-08-08T08:36:15;16.60;99.90
77582;DHT22;66726;52.388;9.986;2023-08-08T08:38:47;16.80;99.90
77582;DHT22;66726;52.388;9.986;2023-08-08T08:41:20;16.90;99.90
77582;DHT22;66726;52.388;9.986;2023-08-08T08:43:56;16.80;99.90
77582;DHT22;66726;52.388;9.986;2023-08-08T08:46:31;16.80;99.90
77582;DHT22;66726;52.388;9.986;2023-08-08T08:49:07;16.90;99.90
77582;DHT22;66726;52.388;9.986;2023-08-08T08:51:42;16.80;99.90
77582;DHT22;66726;52.388;9.986;2023-08-08T08:54:13;16.90;99.90
77582;DHT22;66726;52.388;9.986;2023-08-08T08:56:47;16.90;99.90
77582;DHT22;66726;52.388;9.986;2023-08-08T08:59:19;17.00;99.90
77582;DHT22;66726;52.388;9.986;2023-08-08T09:01:51;17.10;99.90
77582;DHT22;66726;52.388;9.986;2023-08-08T09:04:25;17.10;99.90
77582;DHT22;66726;52.388;9.986;2023-08-08T09:06:59;17.10;99.90
77582;DHT22;66726;52.388;9.986;2023-08-08T09:09:33;17.00;99.60
77582;DHT22;66726;52.388;9.986;2023-08-08T09:12:07;17.10;99.90
77582;DHT22;66726;52.388;9.986;2023-08-08T09:14:41;17.00;99.90
77582;DHT22;66726;52.388;9.986;2023-08-08T09:17:14;16.90;99.90
77582;DHT22;66726;52.388;9.986;2023-08-08T09:19:47;16.90;99.90
77582;DHT22;66726;52.388;9.986;2023-08-08T09:22:19;16.80;99.90
77582;DHT22;66726;52.388;9.986;2023-08-08T09:24:52;16.80;99.90
77582;DHT22;66726;52.388;9.986;2023-08-08T09:27:24;16.80;99.90
77582;DHT22;66726;52.388;9.986;2023-08-08T09:29:58;16.80;99.90
77582;DHT22;66726;52.388;9.986;2023-08-08T09:32:31;16.70;99.90
77582;DHT22;66726;52.388;9.986;2023-08-08T09:35:05;16.80;99.90
77582;DHT22;66726;52.388;9.986;2023-08-08T09:37:39;17.10;99.90
77582;DHT22;66726;52.388;9.986;2023-08-08T09:40:12;17.30;99.90
77582;DHT22;66726;52.388;9.986;2023-08-08T09:42:44;17.30;99.90
77582;DHT22;66726;52.388;9.986;2023-08-08T09:45:17;17.20;99.90
77582;DHT22;66726;52.388;9.986;2023-08-08T09:47:52;17.00;99.90
77582;DHT22;66726;52.388;9.986;2023-08-08T09:50:27;17.00;99.90
77582;DHT22;66726;52.388;9.986;2023-08-08T09:53:01;16.80;99.90
77582;DHT22;66726;52.388;9.986;2023-08-08T09:55:35;16.80;99.90
77582;DHT22;66726;52.388;9.986;2023-08-08T09:58:08;16.80;99.90
77582;DHT22;66726;52.388;9.986;2023-08-08T10:00:41;16.80;99.90
77582;DHT22;66726;52.388;9.986;2023-08-08T10:03:13;16.80;99.90
77582;DHT22;66726;52.388;9.986;2023-08-08T10:05:47;16.80;99.90
77582;DHT22;66726;52.388;9.986;2023-08-08T10:08:19;16.80;99.90
77582;DHT22;66726;52.388;9.986;2023-08-08T10:10:52;16.80;99.90
77582;DHT22;66726;52.388;9.986;2023-08-08T10:13:26;16.70;99.90
77582;DHT22;66726;52.388;9.986;2023-08-08T10:15:58;16.70;99.90
77582;DHT22;66726;52.388;9.986;2023-08-08T10:18:37;16.50;99.90
77582;DHT22;66726;52.388;9.986;2023-08-08T10:21:11;16.50;99.90
77582;DHT22;66726;52.388;9.986;2023-08-08T10:23:43;16.40;99.90
77582;DHT22;66726;52.388;9.986;2023-08-08T10:26:21;16.30;99.90
77582;DHT22;66726;52.388;9.986;2023-08-08T10:28:57;16.20;99.90
77582;DHT22;66726;52.388;9.986;2023-08-08T10:31:34;16.10;99.90
77582;DHT22;66726;52.388;9.986;2023-08-08T10:34:07;16.00;99.90
77582;DHT22;66726;52.388;9.986;2023-08-08T10:36:48;15.90;99.90
77582;DHT22;66726;52.388;9.986;2023-08-08T10:39:21;16.00;99.90
77582;DHT22;66726;52.388;9.986;2023-08-08T10:41:54;16.00;99.90
77582;DHT22;66726;52.388;9.986;2023-08-08T10:44:30;16.00;99.90
77582;DHT22;66726;52.388;9.986;2023-08-08T10:47:10;16.30;99.90
77582;DHT22;66726;52.388;9.986;2023-08-08T10:49:43;16.40;99.90
77582;DHT22;66726;52.388;9.986;2023-08-08T10:52:26;16.50;99.90
77582;DHT22;66726;52.388;9.986;2023-08-08T10:54:58;16.60;99.90
77582;DHT22;66726;52.388;9.986;2023-08-08T10:57:32;16.70;99.90
77582;DHT22;66726;52.388;9.986;2023-08-08T11:00:20;17.00;99.90
77582;DHT22;66726;52.388;9.986;2023-08-08T11:02:53;17.30;99.90
77582;DHT22;66726;52.388;9.986;2023-08-08T11:05:28;17.60;99.90
77582;DHT22;66726;52.388;9.986;2023-08-08T11:08:03;17.70;99.90
77582;DHT22;66726;52.388;9.986;2023-08-08T11:10:37;17.80;99.90
77582;DHT22;66726;52.388;9.986;2023-08-08T11:13:10;17.90;99.90
77582;DHT22;66726;52.388;9.986;2023-08-08T11:15:42;17.90;99.90
77582;DHT22;66726;52.388;9.986;2023-08-08T11:18:15;18.00;99.90
77582;DHT22;66726;52.388;9.986;2023-08-08T11:20:47;18.30;99.90
77582;DHT22;66726;52.388;9.986;2023-08-08T11:23:31;18.50;99.90
77582;DHT22;66726;52.388;9.986;2023-08-08T11:26:06;18.70;99.90
77582;DHT22;66726;52.388;9.986;2023-08-08T11:28:48;18.60;99.80
77582;DHT22;66726;52.388;9.986;2023-08-08T11:31:21;18.50;98.90
77582;DHT22;66726;52.388;9.986;2023-08-08T11:33:55;18.20;99.90
77582;DHT22;66726;52.388;9.986;2023-08-08T11:36:31;18.20;99.50
77582;DHT22;66726;52.388;9.986;2023-08-08T11:39:07;18.30;99.90
77582;DHT22;66726;52.388;9.986;2023-08-08T11:41:40;18.50;99.90
77582;DHT22;66726;52.388;9.986;2023-08-08T11:44:13;18.60;97.90
77582;DHT22;66726;52.388;9.986;2023-08-08T11:46:46;18.70;98.30
77582;DHT22;66726;52.388;9.986;2023-08-08T11:49:20;18.80;96.60
77582;DHT22;66726;52.388;9.986;2023-08-08T11:51:53;18.70;98.00
77582;DHT22;66726;52.388;9.986;2023-08-08T11:54:30;18.60;98.10
77582;DHT22;66726;52.388;9.986;2023-08-08T11:57:02;18.50;98.80
77582;DHT22;66726;52.388;9.986;2023-08-08T11:59:35;18.40;97.70
77582;DHT22;66726;52.388;9.986;2023-08-08T12:02:07;18.40;97.30
77582;DHT22;66726;52.388;9.986;2023-08-08T12:04:45;18.40;97.10
77582;DHT22;66726;52.388;9.986;2023-08-08T12:07:19;18.30;97.50
77582;DHT22;66726;52.388;9.986;2023-08-08T12:09:54;17.90;99.90
77582;DHT22;66726;52.388;9.986;2023-08-08T12:12:27;17.70;99.90
77582;DHT22;66726;52.388;9.986;2023-08-08T12:15:08;17.50;99.90
77582;DHT22;66726;52.388;9.986;2023-08-08T12:17:44;17.60;99.90
77582;DHT22;66726;52.388;9.986;2023-08-08T12:20:18;17.10;99.90
77582;DHT22;66726;52.388;9.986;2023-08-08T12:22:51;17.80;99.90
77582;DHT22;66726;52.388;9.986;2023-08-08T12:25:24;17.90;99.90
77582;DHT22;66726;52.388;9.986;2023-08-08T12:27:56;17.90;99.90
77582;DHT22;66726;52.388;9.986;2023-08-08T12:30:28;18.00;99.90
77582;DHT22;66726;52.388;9.986;2023-08-08T12:33:00;18.00;99.90
77582;DHT22;66726;52.388;9.986;2023-08-08T12:35:33;18.10;99.90
77582;DHT22;66726;52.388;9.986;2023-08-08T12:38:04;18.20;99.70
77582;DHT22;66726;52.388;9.986;2023-08-08T12:40:38;18.30;98.50
77582;DHT22;66726;52.388;9.986;2023-08-08T12:43:11;18.40;98.60
77582;DHT22;66726;52.388;9.986;2023-08-08T12:45:46;18.40;97.90
77582;DHT22;66726;52.388;9.986;2023-08-08T12:48:18;18.40;96.70
77582;DHT22;66726;52.388;9.986;2023-08-08T12:50:50;18.40;96.70
77582;DHT22;66726;52.388;9.986;2023-08-08T12:53:22;18.30;95.60
77582;DHT22;66726;52.388;9.986;2023-08-08T12:55:55;18.30;97.00
77582;DHT22;66726;52.388;9.986;2023-08-08T12:58:27;18.20;98.10
77582;DHT22;66726;52.388;9.986;2023-08-08T13:00:59;18.10;99.30
77582;DHT22;66726;52.388;9.986;2023-08-08T13:03:31;18.10;99.90
77582;DHT22;66726;52.388;9.986;2023-08-08T13:06:03;18.10;99.90
77582;DHT22;66726;52.388;9.986;2023-08-08T13:08:35;18.10;99.80
77582;DHT22;66726;52.388;9.986;2023-08-08T13:11:09;18.10;99.10
77582;DHT22;66726;52.388;9.986;2023-08-08T13:13:41;18.10;97.80
77582;DHT22;66726;52.388;9.986;2023-08-08T13:16:13;18.10;98.10
77582;DHT22;66726;52.388;9.986;2023-08-08T13:18:45;18.00;99.10
77582;DHT22;66726;52.388;9.986;2023-08-08T13:21:18;17.30;99.90
77582;DHT22;66726;52.388;9.986;2023-08-08T13:23:50;16.70;99.90
77582;DHT22;66726;52.388;9.986;2023-08-08T13:26:23;16.30;99.90
77582;DHT22;66726;52.388;9.986;2023-08-08T13:28:55;16.20;99.90
77582;DHT22;66726;52.388;9.986;2023-08-08T13:31:27;16.00;99.90
77582;DHT22;66726;52.388;9.986;2023-08-08T13:33:59;16.00;99.90
77582;DHT22;66726;52.388;9.986;2023-08-08T13:36:30;15.80;99.90
77582;DHT22;66726;52.388;9.986;2023-08-08T13:39:02;15.90;99.90
77582;DHT22;66726;52.388;9.986;2023-08-08T13:41:39;15.90;99.90
77582;DHT22;66726;52.388;9.986;2023-08-08T13:44:10;16.00;99.90
77582;DHT22;66726;52.388;9.986;2023-08-08T13:46:42;16.10;99.90
77582;DHT22;66726;52.388;9.986;2023-08-08T13:49:14;16.20;99.90
77582;DHT22;66726;52.388;9.986;2023-08-08T13:51:46;16.40;99.90
77582;DHT22;66726;52.388;9.986;2023-08-08T13:54:19;16.60;99.90
77582;DHT22;66726;52.388;9.986;2023-08-08T13:56:53;16.80;99.90
77582;DHT22;66726;52.388;9.986;2023-08-08T13:59:25;16.90;99.90
77582;DHT22;66726;52.388;9.986;2023-08-08T14:01:57;17.20;99.90
77582;DHT22;66726;52.388;9.986;2023-08-08T14:04:29;17.20;99.90
77582;DHT22;66726;52.388;9.986;2023-08-08T14:07:00;17.20;99.90
77582;DHT22;66726;52.388;9.986;2023-08-08T14:09:32;17.20;99.90
77582;DHT22;66726;52.388;9.986;2023-08-08T14:12:07;17.20;99.90
77582;DHT22;66726;52.388;9.986;2023-08-08T14:14:39;17.10;99.90
77582;DHT22;66726;52.388;9.986;2023-08-08T14:17:11;17.10;99.90
77582;DHT22;66726;52.388;9.986;2023-08-08T14:19:43;16.90;99.90
77582;DHT22;66726;52.388;9.986;2023-08-08T14:22:15;16.60;99.90
77582;DHT22;66726;52.388;9.986;2023-08-08T14:24:46;16.50;99.90
77582;DHT22;66726;52.388;9.986;2023-08-08T14:27:19;16.40;99.90
77582;DHT22;66726;52.388;9.986;2023-08-08T14:29:51;16.30;99.90
77582;DHT22;66726;52.388;9.986;2023-08-08T14:32:23;16.40;99.90
77582;DHT22;66726;52.388;9.986;2023-08-08T14:34:56;16.50;99.90
77582;DHT22;66726;52.388;9.986;2023-08-08T14:37:28;16.70;99.90
77582;DHT22;66726;52.388;9.986;2023-08-08T14:39:59;16.80;99.90
77582;DHT22;66726;52.388;9.986;2023-08-08T14:42:33;16.80;99.90
77582;DHT22;66726;52.388;9.986;2023-08-08T14:45:06;16.90;99.90
77582;DHT22;66726;52.388;9.986;2023-08-08T14:47:39;17.20;99.90
77582;DHT22;66726;52.388;9.986;2023-08-08T14:50:11;17.40;99.90
77582;DHT22;66726;52.388;9.986;2023-08-08T14:52:43;17.50;99.90
77582;DHT22;66726;52.388;9.986;2023-08-08T14:55:15;17.80;99.90
77582;DHT22;66726;52.388;9.986;2023-08-08T14:57:48;17.70;99.90
77582;DHT22;66726;52.388;9.986;2023-08-08T15:00:21;17.60;99.90
77582;DHT22;66726;52.388;9.986;2023-08-08T15:02:53;17.30;99.90
77582;DHT22;66726;52.388;9.986;2023-08-08T15:05:25;17.00;99.90
77582;DHT22;66726;52.388;9.986;2023-08-08T15:07:57;16.70;99.90
77582;DHT22;66726;52.388;9.986;2023-08-08T15:10:29;16.60;99.90
77582;DHT22;66726;52.388;9.986;2023-08-08T15:13:05;16.40;99.90
77582;DHT22;66726;52.388;9.986;2023-08-08T15:15:36;16.40;99.90
77582;DHT22;66726;52.388;9.986;2023-08-08T15:18:09;16.30;99.90
77582;DHT22;66726;52.388;9.986;2023-08-08T15:20:41;16.30;99.90
77582;DHT22;66726;52.388;9.986;2023-08-08T15:23:13;16.40;99.90
77582;DHT22;66726;52.388;9.986;2023-08-08T15:25:46;16.40;99.90
77582;DHT22;66726;52.388;9.986;2023-08-08T15:28:19;16.40;99.90
77582;DHT22;66726;52.388;9.986;2023-08-08T15:30:51;16.50;99.90
77582;DHT22;66726;52.388;9.986;2023-08-08T15:33:24;16.50;99.90
77582;DHT22;66726;52.388;9.986;2023-08-08T15:35:56;16.60;99.90
77582;DHT22;66726;52.388;9.986;2023-08-08T15:38:28;16.60;99.90
77582;DHT22;66726;52.388;9.986;2023-08-08T15:41:00;16.50;99.90
77582;DHT22;66726;52.388;9.986;2023-08-08T15:43:34;16.50;99.90
77582;DHT22;66726;52.388;9.986;2023-08-08T15:46:06;16.50;99.90
77582;DHT22;66726;52.388;9.986;2023-08-08T15:48:38;16.60;99.90
77582;DHT22;66726;52.388;9.986;2023-08-08T15:51:10;16.60;99.90
77582;DHT22;66726;52.388;9.986;2023-08-08T15:53:41;16.60;99.90
77582;DHT22;66726;52.388;9.986;2023-08-08T15:56:13;16.60;99.90
77582;DHT22;66726;52.388;9.986;2023-08-08T15:58:47;16.80;99.90
77582;DHT22;66726;52.388;9.986;2023-08-08T16:01:19;16.90;99.90
77582;DHT22;66726;52.388;9.986;2023-08-08T16:03:51;17.00;99.90
77582;DHT22;66726;52.388;9.986;2023-08-08T16:06:22;17.10;99.90